TimeEDT,TemperatureF,Dew PointF,Humidity,Sea Level PressureIn,VisibilityMPH,Wind Direction,Wind SpeedMPH,Gust SpeedMPH,PrecipitationIn,Events,Conditions,WindDirDegrees,DateUTC
12:15 AM,46.4,35.6,66,30.28,10.0,SSW,6.9,-,N/A,,Clear,200,2012-10-14 04:15:00
12:35 AM,46.4,33.8,62,30.27,10.0,South,8.1,-,N/A,,Clear,190,2012-10-14 04:35:00
1:15 AM,46.4,35.6,66,30.27,10.0,SSW,10.4,-,N/A,,Clear,200,2012-10-14 05:15:00
1:35 AM,46.4,35.6,66,30.26,10.0,SSW,10.4,-,N/A,,Clear,210,2012-10-14 05:35:00
1:55 AM,46.4,35.6,66,30.25,10.0,SW,8.1,-,N/A,,Clear,220,2012-10-14 05:55:00
2:15 AM,46.4,35.6,66,30.25,10.0,SW,5.8,-,N/A,,Clear,230,2012-10-14 06:15:00
2:35 AM,48.2,35.6,62,30.24,10.0,SSW,8.1,-,N/A,,Clear,210,2012-10-14 06:35:00
2:55 AM,46.4,37.4,71,30.24,10.0,SW,10.4,-,N/A,,Clear,230,2012-10-14 06:55:00
3:15 AM,46.4,37.4,71,30.23,10.0,SW,10.4,-,N/A,,Clear,220,2012-10-14 07:15:00
3:35 AM,46.4,37.4,71,30.23,10.0,SW,8.1,-,N/A,,Clear,220,2012-10-14 07:35:00
3:55 AM,46.4,37.4,71,30.23,10.0,SW,6.9,-,N/A,,Scattered Clouds,220,2012-10-14 07:55:00
4:15 AM,46.4,37.4,71,30.22,10.0,SSW,5.8,-,N/A,,Mostly Cloudy,200,2012-10-14 08:15:00
4:35 AM,48.2,39.2,71,30.22,10.0,South,4.6,-,N/A,,Overcast,190,2012-10-14 08:35:00
4:55 AM,48.2,39.2,71,30.22,10.0,SSW,4.6,-,N/A,,Overcast,200,2012-10-14 08:55:00
5:15 AM,48.2,41.0,76,30.21,10.0,SSW,5.8,-,N/A,,Overcast,200,2012-10-14 09:15:00
5:35 AM,50.0,41.0,71,30.21,10.0,SSW,4.6,-,N/A,,Overcast,200,2012-10-14 09:35:00
5:55 AM,50.0,41.0,71,30.22,10.0,SSW,5.8,-,N/A,,Overcast,200,2012-10-14 09:55:00
6:15 AM,50.0,41.0,71,30.21,10.0,South,6.9,-,N/A,,Overcast,180,2012-10-14 10:15:00
6:35 AM,50.0,42.8,76,30.20,10.0,South,8.1,-,N/A,,Overcast,190,2012-10-14 10:35:00
6:55 AM,50.0,42.8,76,30.20,10.0,South,6.9,-,N/A,Rain,Light Rain,190,2012-10-14 10:55:00
7:15 AM,50.0,42.8,76,30.20,10.0,South,6.9,-,N/A,,Overcast,190,2012-10-14 11:15:00
7:35 AM,50.0,42.8,76,30.20,10.0,South,6.9,-,N/A,,Overcast,190,2012-10-14 11:35:00
7:55 AM,50.0,44.6,82,30.19,10.0,South,9.2,-,N/A,Rain,Light Rain,190,2012-10-14 11:55:00
8:15 AM,50.0,44.6,82,30.20,10.0,SSW,5.8,-,N/A,,Overcast,200,2012-10-14 12:15:00
8:35 AM,51.8,44.6,76,30.20,10.0,SSW,4.6,-,N/A,,Overcast,200,2012-10-14 12:35:00
8:55 AM,51.8,44.6,76,30.20,10.0,SW,8.1,-,N/A,,Overcast,220,2012-10-14 12:55:00
9:15 AM,53.6,44.6,72,30.20,10.0,SSW,8.1,-,N/A,,Overcast,210,2012-10-14 13:15:00
9:35 AM,53.6,44.6,72,30.20,10.0,SSW,4.6,-,N/A,,Mostly Cloudy,210,2012-10-14 13:35:00
9:55 AM,53.6,44.6,72,30.20,10.0,South,4.6,-,N/A,,Overcast,190,2012-10-14 13:55:00
10:15 AM,53.6,44.6,72,30.19,10.0,South,5.8,-,N/A,,Mostly Cloudy,190,2012-10-14 14:15:00
10:35 AM,53.6,44.6,72,30.19,10.0,SSW,5.8,-,N/A,,Overcast,210,2012-10-14 14:35:00
10:55 AM,55.4,44.6,67,30.19,10.0,SSW,6.9,-,N/A,,Overcast,210,2012-10-14 14:55:00
11:15 AM,55.4,44.6,67,30.19,10.0,SSW,4.6,-,N/A,,Overcast,200,2012-10-14 15:15:00
11:35 AM,55.4,44.6,67,30.18,10.0,SSW,6.9,-,N/A,,Overcast,210,2012-10-14 15:35:00
11:55 AM,57.2,44.6,63,30.18,10.0,SSW,6.9,-,N/A,,Mostly Cloudy,210,2012-10-14 15:55:00
12:15 PM,57.2,44.6,63,30.17,10.0,WSW,6.9,-,N/A,,Mostly Cloudy,240,2012-10-14 16:15:00
12:35 PM,57.2,46.4,67,30.16,10.0,SW,5.8,-,N/A,,Overcast,230,2012-10-14 16:35:00
12:55 PM,57.2,46.4,67,30.15,10.0,SW,3.5,-,N/A,,Overcast,220,2012-10-14 16:55:00
1:15 PM,59.0,46.4,63,30.14,10.0,Calm,Calm,-,N/A,,Mostly Cloudy,0,2012-10-14 17:15:00
1:35 PM,59.0,46.4,63,30.12,10.0,Calm,Calm,-,N/A,,Mostly Cloudy,0,2012-10-14 17:35:00
1:55 PM,59.0,46.4,63,30.11,10.0,WNW,3.5,-,N/A,,Mostly Cloudy,300,2012-10-14 17:55:00
2:15 PM,62.6,48.2,59,30.10,10.0,Calm,Calm,-,N/A,,Scattered Clouds,0,2012-10-14 18:15:00
2:35 PM,62.6,46.4,55,30.09,10.0,SW,3.5,-,N/A,,Clear,220,2012-10-14 18:35:00
2:55 PM,64.4,48.2,56,30.07,10.0,SW,3.5,-,N/A,,Clear,230,2012-10-14 18:55:00
3:15 PM,64.4,48.2,56,30.06,10.0,Calm,Calm,-,N/A,,Clear,0,2012-10-14 19:15:00
3:35 PM,66.2,50.0,56,30.05,10.0,Calm,Calm,-,N/A,,Clear,0,2012-10-14 19:35:00
3:55 PM,68.0,50.0,52,30.04,10.0,South,4.6,-,N/A,,Clear,190,2012-10-14 19:55:00
4:15 PM,69.8,50.0,49,30.04,10.0,SSW,8.1,-,N/A,,Clear,200,2012-10-14 20:15:00
4:35 PM,68.0,50.0,52,30.03,10.0,SSW,9.2,-,N/A,,Clear,210,2012-10-14 20:35:00
4:55 PM,68.0,50.0,52,30.03,10.0,SSW,8.1,-,N/A,,Clear,210,2012-10-14 20:55:00
5:15 PM,68.0,48.2,49,30.02,10.0,South,6.9,-,N/A,,Clear,190,2012-10-14 21:15:00
5:35 PM,68.0,48.2,49,30.02,10.0,SSW,11.5,-,N/A,,Clear,210,2012-10-14 21:35:00
5:55 PM,64.4,46.4,52,30.02,10.0,SSW,9.2,-,N/A,,Clear,210,2012-10-14 21:55:00
6:15 PM,64.4,46.4,52,30.02,10.0,SSW,9.2,-,N/A,,Clear,210,2012-10-14 22:15:00
6:35 PM,62.6,46.4,55,30.01,10.0,SSW,8.1,-,N/A,,Clear,210,2012-10-14 22:35:00
6:55 PM,62.6,46.4,55,30.01,10.0,SSW,5.8,-,N/A,,Clear,210,2012-10-14 22:55:00
7:15 PM,60.8,46.4,59,30.01,10.0,SSW,3.5,-,N/A,,Clear,200,2012-10-14 23:15:00
7:35 PM,60.8,46.4,59,30.01,10.0,SSW,5.8,-,N/A,,Clear,210,2012-10-14 23:35:00
7:55 PM,60.8,46.4,59,30.00,10.0,SSW,8.1,-,N/A,,Clear,200,2012-10-14 23:55:00
8:15 PM,60.8,46.4,59,30.00,10.0,SSW,8.1,-,N/A,,Clear,200,2012-10-15 00:15:00
8:35 PM,60.8,46.4,59,30.00,10.0,SW,4.6,-,N/A,,Clear,230,2012-10-15 00:35:00
8:55 PM,60.8,46.4,59,29.99,10.0,South,6.9,-,N/A,,Clear,190,2012-10-15 00:55:00
9:15 PM,60.8,46.4,59,29.98,10.0,South,8.1,-,N/A,,Clear,190,2012-10-15 01:15:00
9:35 PM,60.8,46.4,59,29.98,10.0,SW,6.9,-,N/A,,Clear,220,2012-10-15 01:35:00
9:55 PM,60.8,48.2,63,29.97,10.0,SSW,6.9,-,N/A,,Clear,210,2012-10-15 01:55:00
10:15 PM,60.8,50.0,68,29.96,10.0,SSW,10.4,-,N/A,,Clear,200,2012-10-15 02:15:00
10:35 PM,59.0,50.0,72,29.96,10.0,SSW,4.6,-,N/A,,Clear,210,2012-10-15 02:35:00
10:55 PM,59.0,50.0,72,29.96,10.0,SSW,4.6,-,N/A,,Clear,200,2012-10-15 02:55:00
11:15 PM,59.0,50.0,72,29.95,10.0,South,5.8,-,N/A,,Clear,190,2012-10-15 03:15:00
11:35 PM,59.0,50.0,72,29.93,10.0,South,9.2,-,N/A,,Clear,180,2012-10-15 03:35:00
11:55 PM,60.8,51.8,72,29.94,10.0,SSW,8.1,-,N/A,,Clear,200,2012-10-15 03:55:00